sensor_id;sensor_type;location;lat;lon;timestamp;P1;durP1;ratioP1;P2;durP2;ratioP2
67274;SDS011;55463;52.324;5.122;2023-09-18T00:02:20;22.65;;;17.20;;
67274;SDS011;55463;52.324;5.122;2023-09-18T00:04:45;21.88;;;17.23;;
67274;SDS011;55463;52.324;5.122;2023-09-18T00:07:11;23.80;;;17.52;;
67274;SDS011;55463;52.324;5.122;2023-09-18T00:09:36;24.60;;;17.42;;
67274;SDS011;55463;52.324;5.122;2023-09-18T00:12:02;21.65;;;17.33;;
67274;SDS011;55463;52.324;5.122;2023-09-18T00:14:27;23.77;;;16.77;;
67274;SDS011;55463;52.324;5.122;2023-09-18T00:16:53;26.88;;;17.75;;
67274;SDS011;55463;52.324;5.122;2023-09-18T00:19:18;23.42;;;16.80;;
67274;SDS011;55463;52.324;5.122;2023-09-18T00:21:44;22.35;;;16.63;;
67274;SDS011;55463;52.324;5.122;2023-09-18T00:24:09;23.98;;;16.48;;
67274;SDS011;55463;52.324;5.122;2023-09-18T00:26:36;22.88;;;17.58;;
67274;SDS011;55463;52.324;5.122;2023-09-18T00:29:02;23.17;;;18.73;;
67274;SDS011;55463;52.324;5.122;2023-09-18T00:31:28;22.92;;;16.70;;
67274;SDS011;55463;52.324;5.122;2023-09-18T00:33:53;22.67;;;16.77;;
67274;SDS011;55463;52.324;5.122;2023-09-18T00:36:19;22.90;;;17.60;;
67274;SDS011;55463;52.324;5.122;2023-09-18T00:38:44;25.58;;;17.42;;
67274;SDS011;55463;52.324;5.122;2023-09-18T00:41:11;22.33;;;16.27;;
67274;SDS011;55463;52.324;5.122;2023-09-18T00:43:36;21.27;;;17.05;;
67274;SDS011;55463;52.324;5.122;2023-09-18T00:46:02;24.02;;;16.30;;
67274;SDS011;55463;52.324;5.122;2023-09-18T00:48:28;26.70;;;18.58;;
67274;SDS011;55463;52.324;5.122;2023-09-18T00:50:54;24.70;;;17.55;;
67274;SDS011;55463;52.324;5.122;2023-09-18T00:53:22;23.20;;;17.67;;
67274;SDS011;55463;52.324;5.122;2023-09-18T00:55:50;20.05;;;16.08;;
67274;SDS011;55463;52.324;5.122;2023-09-18T00:58:19;23.42;;;17.20;;
67274;SDS011;55463;52.324;5.122;2023-09-18T01:00:44;18.67;;;15.10;;
67274;SDS011;55463;52.324;5.122;2023-09-18T01:03:10;22.75;;;15.93;;
67274;SDS011;55463;52.324;5.122;2023-09-18T01:05:36;19.63;;;16.58;;
67274;SDS011;55463;52.324;5.122;2023-09-18T01:08:01;22.92;;;15.57;;
67274;SDS011;55463;52.324;5.122;2023-09-18T01:10:32;21.15;;;15.45;;
67274;SDS011;55463;52.324;5.122;2023-09-18T01:13:04;21.52;;;16.08;;
67274;SDS011;55463;52.324;5.122;2023-09-18T01:15:49;21.95;;;16.40;;
67274;SDS011;55463;52.324;5.122;2023-09-18T01:18:19;22.70;;;17.13;;
67274;SDS011;55463;52.324;5.122;2023-09-18T01:20:44;22.27;;;15.95;;
67274;SDS011;55463;52.324;5.122;2023-09-18T01:23:10;21.08;;;16.05;;
67274;SDS011;55463;52.324;5.122;2023-09-18T01:25:36;19.92;;;15.70;;
67274;SDS011;55463;52.324;5.122;2023-09-18T01:28:02;21.40;;;14.73;;
67274;SDS011;55463;52.324;5.122;2023-09-18T01:30:28;21.13;;;15.98;;
67274;SDS011;55463;52.324;5.122;2023-09-18T01:32:54;20.00;;;15.55;;
67274;SDS011;55463;52.324;5.122;2023-09-18T01:35:25;23.67;;;15.02;;
67274;SDS011;55463;52.324;5.122;2023-09-18T01:40:24;22.97;;;15.17;;
67274;SDS011;55463;52.324;5.122;2023-09-18T01:42:50;17.98;;;14.43;;
67274;SDS011;55463;52.324;5.122;2023-09-18T01:45:16;16.73;;;13.40;;
67274;SDS011;55463;52.324;5.122;2023-09-18T01:47:41;20.63;;;14.75;;
67274;SDS011;55463;52.324;5.122;2023-09-18T01:50:07;23.20;;;14.27;;
67274;SDS011;55463;52.324;5.122;2023-09-18T01:52:33;20.70;;;14.23;;
67274;SDS011;55463;52.324;5.122;2023-09-18T01:55:01;22.63;;;14.93;;
67274;SDS011;55463;52.324;5.122;2023-09-18T01:57:28;16.25;;;13.18;;
67274;SDS011;55463;52.324;5.122;2023-09-18T01:59:54;22.35;;;14.18;;
67274;SDS011;55463;52.324;5.122;2023-09-18T02:02:20;17.27;;;13.07;;
67274;SDS011;55463;52.324;5.122;2023-09-18T02:04:45;15.63;;;13.02;;
67274;SDS011;55463;52.324;5.122;2023-09-18T02:07:11;19.42;;;14.70;;
67274;SDS011;55463;52.324;5.122;2023-09-18T02:09:36;18.90;;;12.82;;
67274;SDS011;55463;52.324;5.122;2023-09-18T02:12:02;15.93;;;13.75;;
67274;SDS011;55463;52.324;5.122;2023-09-18T02:14:27;18.27;;;14.43;;
67274;SDS011;55463;52.324;5.122;2023-09-18T02:16:56;25.70;;;13.95;;
67274;SDS011;55463;52.324;5.122;2023-09-18T02:19:21;17.25;;;13.73;;
67274;SDS011;55463;52.324;5.122;2023-09-18T02:21:47;17.30;;;13.18;;
67274;SDS011;55463;52.324;5.122;2023-09-18T02:24:13;15.45;;;12.75;;
67274;SDS011;55463;52.324;5.122;2023-09-18T02:26:38;16.58;;;13.35;;
67274;SDS011;55463;52.324;5.122;2023-09-18T02:29:05;18.33;;;13.85;;
67274;SDS011;55463;52.324;5.122;2023-09-18T02:31:34;18.27;;;14.00;;
67274;SDS011;55463;52.324;5.122;2023-09-18T02:33:59;18.75;;;14.18;;
67274;SDS011;55463;52.324;5.122;2023-09-18T02:36:25;18.05;;;14.43;;
67274;SDS011;55463;52.324;5.122;2023-09-18T02:38:51;19.48;;;13.48;;
67274;SDS011;55463;52.324;5.122;2023-09-18T02:41:16;19.30;;;14.80;;
67274;SDS011;55463;52.324;5.122;2023-09-18T02:43:42;19.27;;;14.75;;
67274;SDS011;55463;52.324;5.122;2023-09-18T02:46:07;18.45;;;14.95;;
67274;SDS011;55463;52.324;5.122;2023-09-18T02:48:34;18.40;;;14.18;;
67274;SDS011;55463;52.324;5.122;2023-09-18T02:51:00;20.42;;;15.25;;
67274;SDS011;55463;52.324;5.122;2023-09-18T02:53:26;24.77;;;14.80;;
67274;SDS011;55463;52.324;5.122;2023-09-18T02:55:54;20.65;;;15.82;;
67274;SDS011;55463;52.324;5.122;2023-09-18T02:58:21;20.55;;;16.13;;
67274;SDS011;55463;52.324;5.122;2023-09-18T03:00:50;19.50;;;15.25;;
67274;SDS011;55463;52.324;5.122;2023-09-18T03:03:15;22.27;;;16.10;;
67274;SDS011;55463;52.324;5.122;2023-09-18T03:05:42;20.17;;;15.85;;
67274;SDS011;55463;52.324;5.122;2023-09-18T03:08:09;22.38;;;15.98;;
67274;SDS011;55463;52.324;5.122;2023-09-18T03:10:36;22.25;;;15.10;;
67274;SDS011;55463;52.324;5.122;2023-09-18T03:13:06;22.63;;;16.40;;
67274;SDS011;55463;52.324;5.122;2023-09-18T03:15:33;18.30;;;14.90;;
67274;SDS011;55463;52.324;5.122;2023-09-18T03:17:59;20.20;;;14.95;;
67274;SDS011;55463;52.324;5.122;2023-09-18T03:20:26;22.67;;;15.20;;
67274;SDS011;55463;52.324;5.122;2023-09-18T03:22:53;22.95;;;14.50;;
67274;SDS011;55463;52.324;5.122;2023-09-18T03:25:19;18.10;;;14.02;;
67274;SDS011;55463;52.324;5.122;2023-09-18T03:27:45;19.55;;;14.48;;
67274;SDS011;55463;52.324;5.122;2023-09-18T03:30:10;20.25;;;15.32;;
67274;SDS011;55463;52.324;5.122;2023-09-18T03:32:43;21.20;;;15.20;;
67274;SDS011;55463;52.324;5.122;2023-09-18T03:35:09;23.17;;;15.50;;
67274;SDS011;55463;52.324;5.122;2023-09-18T03:37:42;21.33;;;14.40;;
67274;SDS011;55463;52.324;5.122;2023-09-18T03:40:11;21.35;;;14.90;;
67274;SDS011;55463;52.324;5.122;2023-09-18T03:42:37;20.90;;;14.70;;
67274;SDS011;55463;52.324;5.122;2023-09-18T03:45:04;23.50;;;15.73;;
67274;SDS011;55463;52.324;5.122;2023-09-18T03:47:31;22.15;;;15.18;;
67274;SDS011;55463;52.324;5.122;2023-09-18T03:49:56;20.98;;;15.90;;
67274;SDS011;55463;52.324;5.122;2023-09-18T03:52:22;18.98;;;14.43;;
67274;SDS011;55463;52.324;5.122;2023-09-18T03:54:47;22.25;;;15.73;;
67274;SDS011;55463;52.324;5.122;2023-09-18T03:57:13;26.10;;;15.30;;
67274;SDS011;55463;52.324;5.122;2023-09-18T03:59:38;21.23;;;15.45;;
67274;SDS011;55463;52.324;5.122;2023-09-18T04:02:04;21.23;;;15.50;;
67274;SDS011;55463;52.324;5.122;2023-09-18T04:04:30;18.02;;;12.35;;
67274;SDS011;55463;52.324;5.122;2023-09-18T04:06:55;25.65;;;14.70;;
67274;SDS011;55463;52.324;5.122;2023-09-18T04:09:21;20.52;;;13.75;;
67274;SDS011;55463;52.324;5.122;2023-09-18T04:11:46;22.05;;;15.43;;
67274;SDS011;55463;52.324;5.122;2023-09-18T04:14:12;22.73;;;14.80;;
67274;SDS011;55463;52.324;5.122;2023-09-18T04:16:37;20.98;;;14.50;;
67274;SDS011;55463;52.324;5.122;2023-09-18T04:19:05;27.55;;;15.93;;
67274;SDS011;55463;52.324;5.122;2023-09-18T04:21:30;26.15;;;16.25;;
67274;SDS011;55463;52.324;5.122;2023-09-18T04:23:56;26.75;;;16.50;;
67274;SDS011;55463;52.324;5.122;2023-09-18T04:26:26;26.30;;;16.83;;
67274;SDS011;55463;52.324;5.122;2023-09-18T04:28:58;23.55;;;16.67;;
67274;SDS011;55463;52.324;5.122;2023-09-18T04:31:27;25.88;;;16.55;;
67274;SDS011;55463;52.324;5.122;2023-09-18T04:33:53;27.65;;;16.63;;
67274;SDS011;55463;52.324;5.122;2023-09-18T04:36:19;36.00;;;18.02;;
67274;SDS011;55463;52.324;5.122;2023-09-18T04:38:44;14.75;;;6.00;;
67274;SDS011;55463;52.324;5.122;2023-09-18T04:41:10;32.13;;;12.00;;
67274;SDS011;55463;52.324;5.122;2023-09-18T04:43:39;12.52;;;7.40;;
67274;SDS011;55463;52.324;5.122;2023-09-18T04:46:04;12.20;;;6.28;;
67274;SDS011;55463;52.324;5.122;2023-09-18T04:48:33;12.10;;;7.30;;
67274;SDS011;55463;52.324;5.122;2023-09-18T04:50:59;12.60;;;8.48;;
67274;SDS011;55463;52.324;5.122;2023-09-18T04:53:25;11.60;;;7.97;;
67274;SDS011;55463;52.324;5.122;2023-09-18T04:55:52;14.45;;;8.05;;
67274;SDS011;55463;52.324;5.122;2023-09-18T04:58:17;9.70;;;5.30;;
67274;SDS011;55463;52.324;5.122;2023-09-18T05:00:43;9.85;;;5.68;;
67274;SDS011;55463;52.324;5.122;2023-09-18T05:03:09;9.35;;;5.97;;
67274;SDS011;55463;52.324;5.122;2023-09-18T05:05:35;21.33;;;5.25;;
67274;SDS011;55463;52.324;5.122;2023-09-18T05:08:01;10.27;;;5.55;;
67274;SDS011;55463;52.324;5.122;2023-09-18T05:10:32;9.52;;;5.70;;
67274;SDS011;55463;52.324;5.122;2023-09-18T05:12:59;11.95;;;5.68;;
67274;SDS011;55463;52.324;5.122;2023-09-18T05:15:24;9.05;;;5.03;;
67274;SDS011;55463;52.324;5.122;2023-09-18T05:17:51;8.65;;;5.35;;
67274;SDS011;55463;52.324;5.122;2023-09-18T05:20:21;8.32;;;5.15;;
67274;SDS011;55463;52.324;5.122;2023-09-18T05:22:49;12.85;;;5.40;;
67274;SDS011;55463;52.324;5.122;2023-09-18T05:25:15;8.68;;;5.35;;
67274;SDS011;55463;52.324;5.122;2023-09-18T05:27:41;9.02;;;5.68;;
67274;SDS011;55463;52.324;5.122;2023-09-18T05:30:10;7.55;;;5.22;;
67274;SDS011;55463;52.324;5.122;2023-09-18T05:32:38;8.38;;;4.97;;
67274;SDS011;55463;52.324;5.122;2023-09-18T05:35:03;8.18;;;5.00;;
67274;SDS011;55463;52.324;5.122;2023-09-18T05:37:31;10.60;;;5.57;;
67274;SDS011;55463;52.324;5.122;2023-09-18T05:39:57;9.13;;;5.20;;
67274;SDS011;55463;52.324;5.122;2023-09-18T05:42:22;10.35;;;5.72;;
67274;SDS011;55463;52.324;5.122;2023-09-18T05:44:48;11.95;;;6.72;;
67274;SDS011;55463;52.324;5.122;2023-09-18T05:47:13;9.43;;;6.00;;
67274;SDS011;55463;52.324;5.122;2023-09-18T05:49:39;11.77;;;6.82;;
67274;SDS011;55463;52.324;5.122;2023-09-18T05:52:04;14.70;;;7.43;;
67274;SDS011;55463;52.324;5.122;2023-09-18T05:54:30;14.10;;;8.35;;
67274;SDS011;55463;52.324;5.122;2023-09-18T05:56:55;15.38;;;8.02;;
67274;SDS011;55463;52.324;5.122;2023-09-18T05:59:20;12.98;;;9.13;;
67274;SDS011;55463;52.324;5.122;2023-09-18T06:01:46;12.85;;;7.80;;
67274;SDS011;55463;52.324;5.122;2023-09-18T06:04:13;16.33;;;8.57;;
67274;SDS011;55463;52.324;5.122;2023-09-18T06:06:38;17.17;;;9.55;;
67274;SDS011;55463;52.324;5.122;2023-09-18T06:09:04;19.50;;;10.15;;
67274;SDS011;55463;52.324;5.122;2023-09-18T06:11:29;15.52;;;9.45;;
67274;SDS011;55463;52.324;5.122;2023-09-18T06:13:55;14.27;;;9.90;;
67274;SDS011;55463;52.324;5.122;2023-09-18T06:16:20;16.80;;;10.35;;
67274;SDS011;55463;52.324;5.122;2023-09-18T06:18:46;21.05;;;11.32;;
67274;SDS011;55463;52.324;5.122;2023-09-18T06:21:11;18.15;;;11.40;;
67274;SDS011;55463;52.324;5.122;2023-09-18T06:23:36;21.60;;;12.40;;
67274;SDS011;55463;52.324;5.122;2023-09-18T06:26:02;22.52;;;13.20;;
67274;SDS011;55463;52.324;5.122;2023-09-18T06:28:29;22.10;;;13.45;;
67274;SDS011;55463;52.324;5.122;2023-09-18T06:30:55;23.33;;;12.93;;
67274;SDS011;55463;52.324;5.122;2023-09-18T06:33:21;24.40;;;14.48;;
67274;SDS011;55463;52.324;5.122;2023-09-18T06:35:46;23.95;;;13.18;;
67274;SDS011;55463;52.324;5.122;2023-09-18T06:38:13;21.75;;;12.75;;
67274;SDS011;55463;52.324;5.122;2023-09-18T06:40:40;20.48;;;12.93;;
67274;SDS011;55463;52.324;5.122;2023-09-18T06:43:06;23.33;;;13.25;;
67274;SDS011;55463;52.324;5.122;2023-09-18T06:45:31;19.67;;;12.93;;
67274;SDS011;55463;52.324;5.122;2023-09-18T06:47:58;16.92;;;11.52;;
67274;SDS011;55463;52.324;5.122;2023-09-18T06:50:25;20.50;;;11.75;;
67274;SDS011;55463;52.324;5.122;2023-09-18T06:52:51;15.40;;;10.05;;
67274;SDS011;55463;52.324;5.122;2023-09-18T06:55:16;18.02;;;11.52;;
67274;SDS011;55463;52.324;5.122;2023-09-18T06:57:42;18.50;;;11.30;;
67274;SDS011;55463;52.324;5.122;2023-09-18T07:00:07;17.85;;;11.27;;
67274;SDS011;55463;52.324;5.122;2023-09-18T07:02:33;16.90;;;11.15;;
67274;SDS011;55463;52.324;5.122;2023-09-18T07:04:59;18.88;;;10.85;;
67274;SDS011;55463;52.324;5.122;2023-09-18T07:07:24;16.83;;;10.95;;
67274;SDS011;55463;52.324;5.122;2023-09-18T07:09:53;19.42;;;11.00;;
67274;SDS011;55463;52.324;5.122;2023-09-18T07:12:19;15.93;;;10.00;;
67274;SDS011;55463;52.324;5.122;2023-09-18T07:14:45;17.45;;;10.77;;
67274;SDS011;55463;52.324;5.122;2023-09-18T07:17:13;16.50;;;10.52;;
67274;SDS011;55463;52.324;5.122;2023-09-18T07:19:39;22.33;;;10.93;;
67274;SDS011;55463;52.324;5.122;2023-09-18T07:22:04;19.58;;;10.85;;
67274;SDS011;55463;52.324;5.122;2023-09-18T07:24:30;16.92;;;11.18;;
67274;SDS011;55463;52.324;5.122;2023-09-18T07:26:55;16.60;;;10.60;;
67274;SDS011;55463;52.324;5.122;2023-09-18T07:29:23;18.58;;;10.60;;
67274;SDS011;55463;52.324;5.122;2023-09-18T07:31:50;15.23;;;9.90;;
67274;SDS011;55463;52.324;5.122;2023-09-18T07:34:16;15.23;;;9.07;;
67274;SDS011;55463;52.324;5.122;2023-09-18T07:36:45;13.30;;;9.45;;
67274;SDS011;55463;52.324;5.122;2023-09-18T07:39:10;13.05;;;9.05;;
67274;SDS011;55463;52.324;5.122;2023-09-18T07:41:39;13.45;;;8.38;;
67274;SDS011;55463;52.324;5.122;2023-09-18T07:44:04;15.55;;;8.85;;
67274;SDS011;55463;52.324;5.122;2023-09-18T07:46:30;12.50;;;8.55;;
67274;SDS011;55463;52.324;5.122;2023-09-18T07:48:55;14.13;;;8.68;;
67274;SDS011;55463;52.324;5.122;2023-09-18T07:51:21;14.40;;;8.55;;
67274;SDS011;55463;52.324;5.122;2023-09-18T07:53:46;11.43;;;7.90;;
67274;SDS011;55463;52.324;5.122;2023-09-18T07:56:12;12.57;;;7.82;;
67274;SDS011;55463;52.324;5.122;2023-09-18T07:58:38;13.10;;;7.90;;
67274;SDS011;55463;52.324;5.122;2023-09-18T08:01:06;14.88;;;8.35;;
67274;SDS011;55463;52.324;5.122;2023-09-18T08:03:33;11.70;;;7.97;;
67274;SDS011;55463;52.324;5.122;2023-09-18T08:05:59;11.10;;;7.75;;
67274;SDS011;55463;52.324;5.122;2023-09-18T08:08:25;13.45;;;7.75;;
67274;SDS011;55463;52.324;5.122;2023-09-18T08:10:51;13.63;;;8.02;;
67274;SDS011;55463;52.324;5.122;2023-09-18T08:13:17;12.63;;;7.40;;
67274;SDS011;55463;52.324;5.122;2023-09-18T08:15:44;11.52;;;7.63;;
67274;SDS011;55463;52.324;5.122;2023-09-18T08:18:10;13.38;;;7.43;;
67274;SDS011;55463;52.324;5.122;2023-09-18T08:20:39;9.82;;;6.90;;
67274;SDS011;55463;52.324;5.122;2023-09-18T08:23:05;10.17;;;7.50;;
67274;SDS011;55463;52.324;5.122;2023-09-18T08:25:31;11.32;;;6.05;;
67274;SDS011;55463;52.324;5.122;2023-09-18T08:27:57;11.30;;;7.32;;
67274;SDS011;55463;52.324;5.122;2023-09-18T08:30:22;11.15;;;7.78;;
67274;SDS011;55463;52.324;5.122;2023-09-18T08:32:48;10.70;;;6.65;;
67274;SDS011;55463;52.324;5.122;2023-09-18T08:35:13;9.00;;;6.25;;
67274;SDS011;55463;52.324;5.122;2023-09-18T08:37:41;6.80;;;5.65;;
67274;SDS011;55463;52.324;5.122;2023-09-18T08:40:11;8.52;;;5.88;;
67274;SDS011;55463;52.324;5.122;2023-09-18T08:42:39;9.13;;;5.15;;
67274;SDS011;55463;52.324;5.122;2023-09-18T08:45:15;8.80;;;5.88;;
67274;SDS011;55463;52.324;5.122;2023-09-18T08:47:47;9.30;;;4.63;;
67274;SDS011;55463;52.324;5.122;2023-09-18T08:50:13;8.07;;;5.45;;
67274;SDS011;55463;52.324;5.122;2023-09-18T08:52:40;7.13;;;5.20;;
67274;SDS011;55463;52.324;5.122;2023-09-18T08:55:06;8.82;;;5.45;;
67274;SDS011;55463;52.324;5.122;2023-09-18T08:57:32;10.45;;;5.03;;
67274;SDS011;55463;52.324;5.122;2023-09-18T09:00:00;7.55;;;4.82;;
67274;SDS011;55463;52.324;5.122;2023-09-18T09:02:31;8.73;;;4.55;;
67274;SDS011;55463;52.324;5.122;2023-09-18T09:04:56;9.70;;;4.68;;
67274;SDS011;55463;52.324;5.122;2023-09-18T09:07:21;8.45;;;4.40;;
67274;SDS011;55463;52.324;5.122;2023-09-18T09:09:47;9.82;;;4.30;;
67274;SDS011;55463;52.324;5.122;2023-09-18T09:12:12;7.60;;;4.72;;
67274;SDS011;55463;52.324;5.122;2023-09-18T09:14:38;8.55;;;4.47;;
67274;SDS011;55463;52.324;5.122;2023-09-18T09:17:03;11.50;;;5.40;;
67274;SDS011;55463;52.324;5.122;2023-09-18T09:19:34;7.85;;;4.97;;
67274;SDS011;55463;52.324;5.122;2023-09-18T09:22:04;9.43;;;4.88;;
67274;SDS011;55463;52.324;5.122;2023-09-18T09:24:36;9.05;;;5.28;;
67274;SDS011;55463;52.324;5.122;2023-09-18T09:27:06;11.65;;;5.28;;
67274;SDS011;55463;52.324;5.122;2023-09-18T09:29:32;6.32;;;5.28;;
67274;SDS011;55463;52.324;5.122;2023-09-18T09:32:19;10.13;;;5.72;;
67274;SDS011;55463;52.324;5.122;2023-09-18T09:34:44;7.85;;;5.10;;
67274;SDS011;55463;52.324;5.122;2023-09-18T09:37:11;6.45;;;5.20;;
67274;SDS011;55463;52.324;5.122;2023-09-18T09:39:49;6.35;;;5.35;;
67274;SDS011;55463;52.324;5.122;2023-09-18T09:42:19;8.32;;;5.68;;
67274;SDS011;55463;52.324;5.122;2023-09-18T09:45:11;7.90;;;4.72;;
67274;SDS011;55463;52.324;5.122;2023-09-18T09:47:39;6.68;;;4.68;;
67274;SDS011;55463;52.324;5.122;2023-09-18T09:50:05;6.45;;;4.47;;
67274;SDS011;55463;52.324;5.122;2023-09-18T09:52:50;8.20;;;4.40;;
67274;SDS011;55463;52.324;5.122;2023-09-18T09:55:22;6.90;;;4.18;;
67274;SDS011;55463;52.324;5.122;2023-09-18T09:58:00;7.40;;;4.28;;
67274;SDS011;55463;52.324;5.122;2023-09-18T10:03:08;5.00;;;3.45;;
67274;SDS011;55463;52.324;5.122;2023-09-18T10:05:42;6.88;;;3.55;;
67274;SDS011;55463;52.324;5.122;2023-09-18T10:08:25;5.90;;;3.40;;
67274;SDS011;55463;52.324;5.122;2023-09-18T10:10:53;4.60;;;3.60;;
67274;SDS011;55463;52.324;5.122;2023-09-18T10:13:21;6.57;;;4.47;;
67274;SDS011;55463;52.324;5.122;2023-09-18T10:15:53;5.28;;;3.95;;
67274;SDS011;55463;52.324;5.122;2023-09-18T10:18:28;6.25;;;3.78;;
67274;SDS011;55463;52.324;5.122;2023-09-18T10:27:03;4.00;;;3.00;;
67274;SDS011;55463;52.324;5.122;2023-09-18T10:29:34;5.18;;;3.20;;
67274;SDS011;55463;52.324;5.122;2023-09-18T10:32:05;5.78;;;3.30;;
67274;SDS011;55463;52.324;5.122;2023-09-18T10:34:33;5.15;;;2.60;;
67274;SDS011;55463;52.324;5.122;2023-09-18T10:36:59;3.90;;;2.40;;
67274;SDS011;55463;52.324;5.122;2023-09-18T10:39:31;7.70;;;2.70;;
67274;SDS011;55463;52.324;5.122;2023-09-18T10:42:00;4.60;;;2.72;;
67274;SDS011;55463;52.324;5.122;2023-09-18T10:44:27;4.25;;;2.78;;
67274;SDS011;55463;52.324;5.122;2023-09-18T10:46:53;3.15;;;2.53;;
67274;SDS011;55463;52.324;5.122;2023-09-18T10:49:20;4.80;;;2.67;;
67274;SDS011;55463;52.324;5.122;2023-09-18T10:51:46;5.03;;;2.47;;
67274;SDS011;55463;52.324;5.122;2023-09-18T10:54:16;6.13;;;2.60;;
67274;SDS011;55463;52.324;5.122;2023-09-18T10:56:45;6.22;;;2.90;;
67274;SDS011;55463;52.324;5.122;2023-09-18T10:59:10;5.00;;;3.05;;
67274;SDS011;55463;52.324;5.122;2023-09-18T11:01:36;4.97;;;2.80;;
67274;SDS011;55463;52.324;5.122;2023-09-18T11:04:05;4.35;;;2.90;;
67274;SDS011;55463;52.324;5.122;2023-09-18T11:09:19;5.72;;;2.72;;
67274;SDS011;55463;52.324;5.122;2023-09-18T11:11:46;5.20;;;3.00;;
67274;SDS011;55463;52.324;5.122;2023-09-18T11:14:13;5.40;;;2.63;;
67274;SDS011;55463;52.324;5.122;2023-09-18T11:16:40;10.80;;;2.80;;
67274;SDS011;55463;52.324;5.122;2023-09-18T11:21:34;4.78;;;2.85;;
67274;SDS011;55463;52.324;5.122;2023-09-18T11:24:06;3.47;;;2.88;;
67274;SDS011;55463;52.324;5.122;2023-09-18T11:26:40;4.88;;;2.53;;
67274;SDS011;55463;52.324;5.122;2023-09-18T11:29:07;4.13;;;2.40;;
67274;SDS011;55463;52.324;5.122;2023-09-18T11:31:41;8.63;;;2.67;;
67274;SDS011;55463;52.324;5.122;2023-09-18T11:36:47;4.85;;;2.63;;
67274;SDS011;55463;52.324;5.122;2023-09-18T11:39:13;6.22;;;2.90;;
67274;SDS011;55463;52.324;5.122;2023-09-18T11:42:07;4.03;;;2.53;;
67274;SDS011;55463;52.324;5.122;2023-09-18T11:44:35;4.03;;;2.90;;
67274;SDS011;55463;52.324;5.122;2023-09-18T11:47:06;8.80;;;3.15;;
67274;SDS011;55463;52.324;5.122;2023-09-18T11:49:33;4.07;;;3.08;;
67274;SDS011;55463;52.324;5.122;2023-09-18T11:52:00;4.22;;;2.80;;
67274;SDS011;55463;52.324;5.122;2023-09-18T11:54:27;8.48;;;2.90;;
67274;SDS011;55463;52.324;5.122;2023-09-18T11:56:53;5.45;;;3.20;;
67274;SDS011;55463;52.324;5.122;2023-09-18T11:59:18;5.93;;;2.88;;
67274;SDS011;55463;52.324;5.122;2023-09-18T12:01:58;9.43;;;3.55;;
67274;SDS011;55463;52.324;5.122;2023-09-18T12:04:30;6.80;;;3.15;;
67274;SDS011;55463;52.324;5.122;2023-09-18T12:07:01;5.03;;;3.05;;
67274;SDS011;55463;52.324;5.122;2023-09-18T12:09:32;9.90;;;3.53;;
67274;SDS011;55463;52.324;5.122;2023-09-18T12:12:01;11.20;;;3.57;;
67274;SDS011;55463;52.324;5.122;2023-09-18T12:14:30;8.55;;;3.20;;
67274;SDS011;55463;52.324;5.122;2023-09-18T12:16:57;7.82;;;3.72;;
67274;SDS011;55463;52.324;5.122;2023-09-18T12:19:27;6.70;;;3.70;;
67274;SDS011;55463;52.324;5.122;2023-09-18T12:21:53;11.13;;;3.20;;
67274;SDS011;55463;52.324;5.122;2023-09-18T12:24:22;6.78;;;3.50;;
67274;SDS011;55463;52.324;5.122;2023-09-18T12:26:51;7.78;;;3.25;;
67274;SDS011;55463;52.324;5.122;2023-09-18T12:29:18;8.15;;;3.30;;
67274;SDS011;55463;52.324;5.122;2023-09-18T12:31:44;5.80;;;3.35;;
67274;SDS011;55463;52.324;5.122;2023-09-18T12:34:14;8.80;;;3.40;;
67274;SDS011;55463;52.324;5.122;2023-09-18T12:36:43;11.32;;;3.50;;
67274;SDS011;55463;52.324;5.122;2023-09-18T12:39:12;6.00;;;3.40;;
67274;SDS011;55463;52.324;5.122;2023-09-18T12:41:41;5.65;;;3.20;;
67274;SDS011;55463;52.324;5.122;2023-09-18T12:44:08;5.63;;;3.17;;
67274;SDS011;55463;52.324;5.122;2023-09-18T12:46:35;6.65;;;3.30;;
67274;SDS011;55463;52.324;5.122;2023-09-18T12:49:14;5.40;;;3.30;;
67274;SDS011;55463;52.324;5.122;2023-09-18T12:51:57;5.15;;;3.40;;
67274;SDS011;55463;52.324;5.122;2023-09-18T12:54:42;9.90;;;2.90;;
67274;SDS011;55463;52.324;5.122;2023-09-18T12:57:19;5.70;;;2.65;;
67274;SDS011;55463;52.324;5.122;2023-09-18T12:59:44;4.72;;;2.97;;
67274;SDS011;55463;52.324;5.122;2023-09-18T13:02:13;6.78;;;3.10;;
67274;SDS011;55463;52.324;5.122;2023-09-18T13:04:38;7.03;;;2.90;;
67274;SDS011;55463;52.324;5.122;2023-09-18T13:07:09;4.22;;;3.20;;
67274;SDS011;55463;52.324;5.122;2023-09-18T13:09:35;8.35;;;2.65;;
67274;SDS011;55463;52.324;5.122;2023-09-18T13:12:02;5.90;;;2.70;;
67274;SDS011;55463;52.324;5.122;2023-09-18T13:14:28;3.97;;;2.90;;
67274;SDS011;55463;52.324;5.122;2023-09-18T13:17:00;8.85;;;3.03;;
67274;SDS011;55463;52.324;5.122;2023-09-18T13:19:25;6.63;;;2.90;;
67274;SDS011;55463;52.324;5.122;2023-09-18T13:21:51;11.23;;;2.97;;
67274;SDS011;55463;52.324;5.122;2023-09-18T13:24:26;5.03;;;3.08;;
67274;SDS011;55463;52.324;5.122;2023-09-18T13:26:55;7.55;;;3.03;;
67274;SDS011;55463;52.324;5.122;2023-09-18T13:29:22;7.68;;;3.22;;
67274;SDS011;55463;52.324;5.122;2023-09-18T13:31:48;3.67;;;2.88;;
67274;SDS011;55463;52.324;5.122;2023-09-18T13:34:15;5.93;;;2.80;;
67274;SDS011;55463;52.324;5.122;2023-09-18T13:36:43;6.07;;;3.22;;
67274;SDS011;55463;52.324;5.122;2023-09-18T13:39:10;6.07;;;3.22;;
67274;SDS011;55463;52.324;5.122;2023-09-18T13:41:36;7.75;;;3.40;;
67274;SDS011;55463;52.324;5.122;2023-09-18T13:44:02;6.85;;;2.78;;
67274;SDS011;55463;52.324;5.122;2023-09-18T13:46:27;5.47;;;2.72;;
67274;SDS011;55463;52.324;5.122;2023-09-18T13:48:52;6.25;;;3.00;;
67274;SDS011;55463;52.324;5.122;2023-09-18T13:51:18;6.88;;;2.70;;
67274;SDS011;55463;52.324;5.122;2023-09-18T13:53:43;6.57;;;3.40;;
67274;SDS011;55463;52.324;5.122;2023-09-18T13:56:09;9.20;;;3.55;;
67274;SDS011;55463;52.324;5.122;2023-09-18T13:58:34;4.25;;;3.03;;
67274;SDS011;55463;52.324;5.122;2023-09-18T14:01:02;3.70;;;2.80;;
67274;SDS011;55463;52.324;5.122;2023-09-18T14:03:27;6.00;;;3.00;;
67274;SDS011;55463;52.324;5.122;2023-09-18T14:05:53;7.38;;;3.28;;
67274;SDS011;55463;52.324;5.122;2023-09-18T14:08:18;9.45;;;2.92;;
67274;SDS011;55463;52.324;5.122;2023-09-18T14:10:44;6.18;;;2.80;;
67274;SDS011;55463;52.324;5.122;2023-09-18T14:13:09;4.88;;;2.90;;
67274;SDS011;55463;52.324;5.122;2023-09-18T14:15:35;4.35;;;2.70;;
67274;SDS011;55463;52.324;5.122;2023-09-18T14:18:02;3.10;;;2.40;;
67274;SDS011;55463;52.324;5.122;2023-09-18T14:20:28;9.18;;;2.92;;
67274;SDS011;55463;52.324;5.122;2023-09-18T14:22:54;5.15;;;3.08;;
67274;SDS011;55463;52.324;5.122;2023-09-18T14:25:20;4.40;;;3.00;;
67274;SDS011;55463;52.324;5.122;2023-09-18T14:27:47;8.00;;;3.20;;
67274;SDS011;55463;52.324;5.122;2023-09-18T14:30:12;6.38;;;3.20;;
67274;SDS011;55463;52.324;5.122;2023-09-18T14:32:38;7.45;;;3.60;;
67274;SDS011;55463;52.324;5.122;2023-09-18T14:35:04;5.07;;;3.10;;
67274;SDS011;55463;52.324;5.122;2023-09-18T14:37:32;10.50;;;2.80;;
67274;SDS011;55463;52.324;5.122;2023-09-18T14:39:58;3.75;;;2.58;;
67274;SDS011;55463;52.324;5.122;2023-09-18T14:42:23;5.10;;;2.78;;
67274;SDS011;55463;52.324;5.122;2023-09-18T14:44:49;2.78;;;2.35;;
67274;SDS011;55463;52.324;5.122;2023-09-18T14:47:15;7.63;;;2.50;;
67274;SDS011;55463;52.324;5.122;2023-09-18T14:49:41;4.72;;;2.28;;
67274;SDS011;55463;52.324;5.122;2023-09-18T14:52:08;5.25;;;2.35;;
67274;SDS011;55463;52.324;5.122;2023-09-18T14:54:34;4.80;;;2.50;;
67274;SDS011;55463;52.324;5.122;2023-09-18T14:56:59;3.47;;;2.60;;